La Palma > ESTACION METEOROLÓGICA Laguna Barlovento

DATOS ACTUALES Online

Ultima actulizacion 7 minutos

16 ºC

Temperatura

93

Humedad (%)

Presión (mb)

0

Precipitación (mm)

Viento (Km/h)

DATOS DIARIOS

Temperatura últimas 24 horas (ºC)

Humedad últimas 24 horas (%)

Presión atmosférica últimas 24 horas (mb)

Precipitaciones últimas 23 horas (mm)

Viento últimas 24 horas (Km/h)

Hora Temperatura (°C) ºC Precipitación (mm) mm Presión (mb) mb Humedad (%) % Viento (Km/h) km/h
16 - 00:00 16.1 0 0 98
16 - 01:00 15.7 0 0 97.4
16 - 02:00 15.9 0 0 96.6
16 - 03:00 15.9 0 0 96
16 - 04:00 16 0 0 96.2
16 - 05:00 16.1 0 0 94.7
16 - 06:00 19.4 0 0 47.1
16 - 07:00 19.4 0 0 45.9
16 - 08:00 19.9 0 0 48.4
16 - 09:00 19.4 0 0 63.4
16 - 10:00 20.9 0 0 67.5
16 - 11:00 19.7 0 0 83
16 - 12:00 20.9 0 0 78.3
16 - 13:00 21.4 0 0 77.2
16 - 14:00 20.4 0 0 80.9
16 - 15:00 20.6 0 0 75.9
16 - 16:00 19.7 0 0 81.1
16 - 17:00 19.1 0 0 83.5
16 - 18:00 19.5 0 0 79.2
16 - 19:00 19.6 0 0 46.4
16 - 20:00 18.7 0 0 46.1
16 - 21:00 17.4 0 0 61.4
16 - 22:00 17.3 0 0 74.3
16 - 23:00 16 0 0 93.3
17 - 00:00
Apalmet utiliza cookies propias y de terceros para mejorar la usabilidad y la experiencia web. Política de cookies.